Current Metar reports for airports in our Region

Nearby METAR Reports

Metar reports are mainly used by pilots for information on what is happening at their destination during their pre-flight weather briefings and by meteorologists to assist in short term forecasts. A raw Metar is one of the most universal ways to communicate weather information in the world and are usually transmitted by airports, but some come from permanent sanctioned weather observatories.

Listed below are Metars from airports within 100 miles of our station here in Smethport Pa. The first one of course is the Bradford Regional Airport, then the Olean NY airport and so on. Each airport has it's own table to display it's data and at the bottom of the table is 'Raw' Metar for each airport. Most pilots and weather forecasters can look at the raw data and tell you what is up, but we use a script that handles all of the details for us.

KBFD - Bradford, Pennsylvania, USA
Distance from our station: NW 7mi
Updated: Tue, 25-Jul-2017 12:03am EDT
Overcast
Overcast
 Wind from W
Wind:: W 7 mph
Temperature: 61°F
Dew Point: 57°F
Humidity: 88%
Barometer: 30.01 inHg
Clouds: Overcast
Visibility: 10 miles
Cloud details: Mostly Cloudy 1400 ft
Overcast 2200 ft
2017/07/25 04:03 KBFD 250403Z AUTO 27006KT 10SM BKN014 OVC022 16/14 A3001 RMK AO2 T01560144
KOLE - Olean, New York, USA
Distance from our station: NNE 37mi
Updated: Tue, 25-Jul-2017 12:35am EDT
Mist, Overcast
Mist, Overcast
 Wind from NW
Wind:: NW 7 mph
Temperature: 55°F
Dew Point: 55°F
Humidity: 100%
Barometer: 30.01 inHg
Summary: Mist
Clouds: Overcast
Visibility: 5 miles
Cloud details: Overcast 300 ft
2017/07/25 04:35 KOLE 250435Z AUTO 32006KT 5SM BR OVC003 13/13 A3001 RMK AO2
 
KELZ - Wellsville, New York, USA
Distance from our station: NE 40mi
Updated: Tue, 25-Jul-2017 12:14am EDT
Light rain, Mist, Overcast
Light rain, Mist, Overcast
 Wind from W
Wind:: W 12 mph
Temperature: 61°F
Dew Point: 57°F
Humidity: 88%
Barometer: 30.00 inHg
Summary: Light rain, Mist
Clouds: Overcast
Visibility: 3 miles
Cloud details: Mostly Cloudy 700 ft
Overcast 1800 ft
2017/07/25 04:14 KELZ 250414Z AUTO 28010KT 3SM -RA BR BKN007 OVC018 16/14 A3000 RMK AO2 P0001 T01610144 $
KDUJ - Du Bois, Pennsylvania, USA
Distance from our station: SSW 42mi
Updated: Tue, 25-Jul-2017 12:34am EDT
Overcast
Overcast
 Wind from W
Wind:: W 7 mph
Temperature: 59°F
Dew Point: 55°F
Humidity: 88%
Barometer: 30.03 inHg
Clouds: Overcast
Visibility: 10 miles
Cloud details: Mostly Cloudy 1500 ft
Overcast 4800 ft
2017/07/25 04:34 KDUJ 250434Z AUTO 27006KT 10SM BKN015 OVC048 15/13 A3003 RMK AO2 T01500133
 
KJHW - Jamestown, New York, USA
Distance from our station: NW 46mi
Updated: Tue, 25-Jul-2017 12:35am EDT
Overcast
Overcast
 Wind from NW
Wind:: NW 9 mph
Temperature: 59°F
Dew Point: 55°F
Humidity: 88%
Barometer: 30.02 inHg
Clouds: Overcast
Visibility: 5 miles
Cloud details: Overcast 500 ft
2017/07/25 04:35 KJHW 250435Z AUTO 31008KT 5SM OVC005 15/13 A3002 RMK AO1
KFIG - Clearfield, Pennsylvania, USA
Distance from our station: S 47mi
Updated: Mon, 24-Jul-2017 11:54pm EDT
Overcast
Overcast
 Wind from WNW
Wind:: WNW 8 mph
Temperature: 64°F
Dew Point: 55°F
Humidity: 73%
Barometer: 30.01 inHg
Clouds: Overcast
Visibility: 10 miles
Cloud details: Few Clouds 2400 ft
Overcast 4900 ft
2017/07/25 03:54 KFIG 250354Z AUTO 29007KT 10SM FEW024 OVC049 18/13 A3001 RMK AO2 SLP154 T01830133
 
KDKK - Dunkirk, New York, USA
Distance from our station: NW 66mi
Updated: Tue, 25-Jul-2017 12:05am EDT
Overcast
Overcast
 Wind from NNW
Wind:: NNW 13 mph
Temperature: 63°F
Dew Point: 61°F
Humidity: 94%
Barometer: 30.00 inHg
Clouds: Overcast
Visibility: 10 miles
Cloud details: Overcast 1500 ft
2017/07/25 04:05 KDKK 250405Z AUTO 34011KT 10SM OVC015 17/16 A3000 RMK AO2 T01720156 $
KUNV - State College, Pennsylvania, USA
Distance from our station: SSE 71mi
Updated: Tue, 25-Jul-2017 12:15am EDT
Overcast
Overcast
 Wind from W
Wind:: W 5 mph
Temperature: 66°F
Dew Point: 55°F
Humidity: 68%
Barometer: 29.99 inHg
Clouds: Overcast
Visibility: 10 miles
Cloud details: Partly Cloudy 3100 ft
Partly Cloudy 4400 ft
Overcast 5000 ft
2017/07/25 04:15 KUNV 250415Z AUTO 28004KT 10SM SCT031 SCT044 OVC050 19/13 A2999 RMK AO2 T01940133
 
KFKL - Franklin, Pennsylvania, USA
Distance from our station: WSW 72mi
Updated: Tue, 25-Jul-2017 12:35am EDT
Overcast
Overcast
 Wind from WNW
Wind:: WNW 7 mph
Temperature: 59°F
Dew Point: 54°F
Humidity: 82%
Barometer: 30.06 inHg
Clouds: Overcast
Visibility: 10 miles
Cloud details: Partly Cloudy 900 ft
Overcast 1800 ft
2017/07/25 04:35 KFKL 250435Z AUTO 29006KT 10SM SCT009 OVC018 15/12 A3006 RMK AO1
KDSV - Dansville, New York, USA
Distance from our station: NE 73mi
Updated: Tue, 25-Jul-2017 12:17am EDT
Overcast
Overcast
 Wind from NW
Wind:: NW 10 mph
Temperature: 63°F
Dew Point: 61°F
Humidity: 94%
Barometer: 29.97 inHg
Clouds: Overcast
Visibility: 10 miles
Cloud details: Few Clouds 1000 ft
Overcast 1500 ft
2017/07/25 04:17 KDSV 250417Z AUTO 31009KT 10SM FEW010 OVC015 17/16 A2997 RMK AO2 RAE0358 P0000 T01720156
 
KIDI - Indiana/Stewart, Pennsylvania, USA
Distance from our station: SSW 81mi
Updated: Tue, 25-Jul-2017 12:35am EDT
Overcast
Overcast
 Wind from WNW
Wind:: WNW 6 mph
Temperature: 64°F
Dew Point: 57°F
Humidity: 78%
Barometer: 30.07 inHg
Clouds: Overcast
Visibility: 10 miles
Cloud details: Overcast 4000 ft
2017/07/25 04:35 KIDI 250435Z AUTO 29005KT 10SM OVC040 18/14 A3007 RMK A01
KBUF - Buffalo/Cheektow, New York, USA
Distance from our station: N 84mi
Updated: Tue, 25-Jul-2017 12:32am EDT
Overcast
Overcast
 Wind from NW
Wind:: NW 5 mph
Temperature: 63°F
Dew Point: 59°F
Humidity: 88%
Barometer: 29.99 inHg
Clouds: Overcast
Visibility: 10 miles
Cloud details: Overcast 1300 ft
2017/07/25 04:32 KBUF 250432Z 32004KT 10SM OVC013 17/15 A2999 RMK AO2 T01670150
 
KGKJ - Meadville, Pennsylvania, USA
Distance from our station: W 86mi
Updated: Tue, 25-Jul-2017 12:22am EDT
Light rain, Overcast
Light rain, Overcast
 Wind from NW
Wind:: NW 3 mph
Temperature: 61°F
Dew Point: 59°F
Humidity: 94%
Barometer: 30.05 inHg
Summary: Light Rain
Clouds: Overcast
Visibility: 8 miles
Cloud details: Mostly Cloudy 2000 ft
Overcast 2900 ft
2017/07/25 04:22 KGKJ 250422Z AUTO 31003KT 8SM -RA BKN020 OVC029 16/15 A3005 RMK AO2 RAB17 P0000 T01560150 TSNO
KERI - Erie, Pennsylvania, USA
Distance from our station: WNW 87mi
Updated: Mon, 24-Jul-2017 11:51pm EDT
Overcast
Overcast
 Wind from NNW
Wind:: NNW 14 mph, Gust: 18 mph
Temperature: 64°F
Dew Point: 57°F
Humidity: 78%
Barometer: 30.02 inHg
Clouds: Overcast
Visibility: 10 miles
Cloud details: Partly Cloudy 1900 ft
Overcast 3800 ft
2017/07/25 03:51 KERI 250351Z 34012G16KT 10SM SCT019 OVC038 18/14 A3002 RMK AO2 SLP164 T01830139 $
 
KELM - Elmira, New York, USA
Distance from our station: ENE 90mi
Updated: Mon, 24-Jul-2017 11:53pm EDT
Mostly Cloudy
Mostly Cloudy
 Wind from WSW
Wind:: WSW 6 mph
Temperature: 64°F
Dew Point: 61°F
Humidity: 88%
Barometer: 29.93 inHg
Clouds: Mostly Cloudy
Visibility: 10 miles
Cloud details: Partly Cloudy 4000 ft
Mostly Cloudy 9000 ft
2017/07/25 03:53 KELM 250353Z AUTO 25005KT 10SM SCT040 BKN090 18/16 A2993 RMK AO2 SLP128 T01780156
KIPT - Williamsport, Pennsylvania, USA
Distance from our station: ESE 91mi
Updated: Mon, 24-Jul-2017 11:54pm EDT
Mostly Cloudy
Mostly Cloudy
 Wind from calm
Wind:: Calm
Temperature: 70°F
Dew Point: 61°F
Humidity: 73%
Barometer: 29.92 inHg
Clouds: Mostly Cloudy
Visibility: 10 miles
Cloud details: Mostly Cloudy 6000 ft
2017/07/25 03:54 KIPT 250354Z AUTO 00000KT 10SM BKN060 21/16 A2992 RMK AO2 SLP129 T02060161
 
KBTP - Butler Co., Pennsylvania, USA
Distance from our station: SW 98mi
Updated: Tue, 25-Jul-2017 12:35am EDT
Overcast
Overcast
 Wind from NW
Wind:: NW 7 mph
Temperature: 64°F
Dew Point: 54°F
Humidity: 68%
Barometer: 30.05 inHg
Clouds: Overcast
Visibility: 10 miles
Cloud details: Overcast 3600 ft
2017/07/25 04:35 KBTP 250435Z AUTO 32006KT 10SM OVC036 18/12 A3005 RMK AO1
KAOO - Altoona, Pennsylvania, USA
Distance from our station: S 99mi
Updated: Mon, 24-Jul-2017 11:53pm EDT
Few Clouds
Few Clouds
 Wind from varies
Wind:: varies 6 mph
Temperature: 64°F
Dew Point: 55°F
Humidity: 73%
Barometer: 30.02 inHg
Clouds: Few Clouds
Visibility: 10 miles
Cloud details: Few Clouds 4700 ft
2017/07/25 03:53 KAOO 250353Z AUTO VRB05KT 10SM FEW047 18/13 A3002 RMK AO2 SLP156 T01780133
 
KPIT - Pittsburg, Pennsylvania, USA
Distance from our station: SSW 126mi
Updated: Mon, 24-Jul-2017 11:51pm EDT
Overcast
Overcast
 Wind from NW
Wind:: NW 9 mph
Temperature: 64°F
Dew Point: 55°F
Humidity: 73%
Barometer: 30.05 inHg
Clouds: Overcast
Visibility: 10 miles
Cloud details: Overcast 4100 ft
2017/07/25 03:51 KPIT 250351Z 31008KT 10SM OVC041 18/13 A3005 RMK AO2 SLP176 T01830133
KCLE - Cleveland, Ohio, USA
Distance from our station: WSW 160mi
Updated: Mon, 24-Jul-2017 11:51pm EDT
Partly Cloudy
Partly Cloudy
 Wind from N
Wind:: N 16 mph, Gust: 28 mph
Temperature: 68°F
Dew Point: 54°F
Humidity: 60%
Barometer: 30.09 inHg
Clouds: Partly Cloudy
Visibility: 10 miles
Cloud details: Partly Cloudy 3200 ft
Partly Cloudy 4200 ft
2017/07/25 03:51 KCLE 250351Z 35014G24KT 10SM SCT032 SCT042 20/12 A3009 RMK AO2 SLP187 T02000117